Time;durP1;ratioP1;P1;durP2;ratioP2;P2;SDS_P1;SDS_P2;PMS_P1;PMS_P2;Temp;Humidity;BMP_temperature;BMP_pressure;BME280_temperature;BME280_humidity;BME280_pressure;Samples;Min_cycle;Max_cycle;Signal;HPM_P1;HPM_P2
2023/07/01 00:22:57;;;;;;;12.32;2.63;;;;;;;;;;5228480;22;20062;-74
2023/07/01 00:25:23;;;;;;;11.93;2.95;;;;;;;;;;5115705;28;20452;-74
2023/07/01 00:27:50;;;;;;;9.45;2.60;;;;;;;;;;5080487;28;20048;-74
2023/07/01 00:30:16;;;;;;;7.57;2.63;;;;;;;;;;5096921;28;20052;-74
2023/07/01 00:32:42;;;;;;;10.82;2.70;;;;;;;;;;5114711;28;20046;-74
2023/07/01 00:35:08;;;;;;;8.90;2.90;;;;;;;;;;5115413;28;20144;-74
2023/07/01 00:37:34;;;;;;;9.50;2.75;;;;;;;;;;5115598;28;20040;-74
2023/07/01 00:40:00;;;;;;;10.32;2.63;;;;;;;;;;5096652;28;20503;-74
2023/07/01 00:42:26;;;;;;;7.65;2.70;;;;;;;;;;5115623;28;20122;-75
2023/07/01 00:44:52;;;;;;;10.15;2.53;;;;;;;;;;5114456;28;20051;-75
2023/07/01 00:47:19;;;;;;;6.45;2.65;;;;;;;;;;5103593;28;20342;-75
2023/07/01 00:49:46;;;;;;;4.97;2.50;;;;;;;;;;5105805;28;20036;-75
2023/07/01 00:52:12;;;;;;;8.52;2.75;;;;;;;;;;5095263;28;20122;-74
2023/07/01 00:54:38;;;;;;;9.35;2.60;;;;;;;;;;5112400;28;20085;-74
2023/07/01 00:57:05;;;;;;;10.55;2.80;;;;;;;;;;5095889;28;20149;-74
2023/07/01 00:59:32;;;;;;;11.68;3.00;;;;;;;;;;5112988;28;20040;-74
2023/07/01 01:02:00;;;;;;;9.48;2.60;;;;;;;;;;5099506;28;20035;-74
2023/07/01 01:04:45;;;;;;;7.22;2.75;;;;;;;;;;5114084;28;20054;-74
2023/07/01 01:07:14;;;;;;;12.67;2.67;;;;;;;;;;5094746;28;20044;-74
2023/07/01 01:09:49;;;;;;;9.55;2.88;;;;;;;;;;5077410;28;20058;-75
2023/07/01 01:12:17;;;;;;;8.88;2.60;;;;;;;;;;5096022;28;20101;-75
2023/07/01 01:14:43;;;;;;;9.98;2.83;;;;;;;;;;5114085;28;20046;-75
2023/07/01 01:17:14;;;;;;;6.30;2.70;;;;;;;;;;5096874;28;20101;-75
2023/07/01 01:19:41;;;;;;;8.05;2.85;;;;;;;;;;5113346;28;20044;-75
2023/07/01 01:22:12;;;;;;;9.63;2.80;;;;;;;;;;5094024;28;20552;-75
2023/07/01 01:24:40;;;;;;;7.25;2.70;;;;;;;;;;5093988;28;20055;-75
2023/07/01 01:27:09;;;;;;;8.18;2.75;;;;;;;;;;5093914;28;20488;-75
2023/07/01 01:29:35;;;;;;;6.15;2.50;;;;;;;;;;5095404;28;20047;-74
2023/07/01 01:32:01;;;;;;;13.15;3.00;;;;;;;;;;5094345;28;20032;-75
2023/07/01 01:34:27;;;;;;;6.90;2.85;;;;;;;;;;5094058;28;20051;-75
2023/07/01 01:36:54;;;;;;;9.73;2.78;;;;;;;;;;5093927;28;20134;-74
2023/07/01 01:39:22;;;;;;;13.10;2.90;;;;;;;;;;5075668;28;20140;-76
2023/07/01 01:41:48;;;;;;;6.20;2.78;;;;;;;;;;5110319;28;20040;-76
2023/07/01 01:44:19;;;;;;;9.98;2.60;;;;;;;;;;5106066;28;20044;-75
2023/07/01 01:46:45;;;;;;;9.20;2.55;;;;;;;;;;5102860;28;20113;-75
2023/07/01 01:49:13;;;;;;;7.50;3.03;;;;;;;;;;5090631;28;20047;-75
2023/07/01 01:51:40;;;;;;;14.65;3.15;;;;;;;;;;5111460;28;20380;-75
2023/07/01 01:54:07;;;;;;;10.82;3.15;;;;;;;;;;5097776;28;20106;-75
2023/07/01 01:56:34;;;;;;;10.05;3.35;;;;;;;;;;5092212;28;20101;-75
2023/07/01 01:59:01;;;;;;;8.63;3.30;;;;;;;;;;5103028;28;20043;-75
2023/07/01 02:01:27;;;;;;;7.15;2.90;;;;;;;;;;5102661;28;20491;-75
2023/07/01 02:03:53;;;;;;;10.48;3.40;;;;;;;;;;5100266;28;20485;-75
2023/07/01 02:06:19;;;;;;;6.35;3.45;;;;;;;;;;5093072;28;20048;-75
2023/07/01 02:08:46;;;;;;;8.15;3.63;;;;;;;;;;5093075;28;20408;-75
2023/07/01 02:11:12;;;;;;;10.18;3.70;;;;;;;;;;5098772;28;20044;-75
2023/07/01 02:13:38;;;;;;;6.38;3.20;;;;;;;;;;5109615;28;20457;-75
2023/07/01 02:16:04;;;;;;;11.43;3.63;;;;;;;;;;5112998;28;20124;-75
2023/07/01 02:18:30;;;;;;;7.35;3.55;;;;;;;;;;5110687;28;20141;-75
2023/07/01 02:20:56;;;;;;;10.10;3.75;;;;;;;;;;5101708;28;20140;-75
2023/07/01 02:23:23;;;;;;;9.48;3.65;;;;;;;;;;5113059;28;20093;-75
2023/07/01 02:25:49;;;;;;;8.65;3.20;;;;;;;;;;5097121;28;20054;-75
2023/07/01 02:28:15;;;;;;;7.65;3.40;;;;;;;;;;5093066;28;20044;-75
2023/07/01 02:30:41;;;;;;;9.32;3.30;;;;;;;;;;5092946;28;20142;-75
2023/07/01 02:33:07;;;;;;;10.93;3.33;;;;;;;;;;5074776;28;20052;-75
2023/07/01 02:35:33;;;;;;;7.97;3.33;;;;;;;;;;5074356;28;20040;-75
2023/07/01 02:37:59;;;;;;;13.10;3.60;;;;;;;;;;5108830;28;20541;-75
2023/07/01 02:40:26;;;;;;;10.57;3.50;;;;;;;;;;5094256;28;20043;-75
2023/07/01 02:42:52;;;;;;;13.55;3.92;;;;;;;;;;5113497;28;20116;-75
2023/07/01 02:45:18;;;;;;;10.27;3.70;;;;;;;;;;5112819;28;20058;-75
2023/07/01 02:47:44;;;;;;;10.27;3.58;;;;;;;;;;5113162;28;20044;-75
2023/07/01 02:50:10;;;;;;;7.43;3.35;;;;;;;;;;5111897;28;20040;-75
2023/07/01 02:52:36;;;;;;;8.18;3.42;;;;;;;;;;5112322;28;20039;-75
2023/07/01 02:55:02;;;;;;;10.02;3.92;;;;;;;;;;5094621;28;20238;-75
2023/07/01 02:57:28;;;;;;;9.32;3.85;;;;;;;;;;5113141;28;20047;-75
2023/07/01 02:59:56;;;;;;;7.45;3.78;;;;;;;;;;5112412;28;20044;-75
2023/07/01 03:02:22;;;;;;;10.32;4.20;;;;;;;;;;5113241;28;20058;-75
2023/07/01 03:04:49;;;;;;;10.02;4.22;;;;;;;;;;5111835;28;20039;-75
2023/07/01 03:07:15;;;;;;;7.38;4.60;;;;;;;;;;5111444;28;20054;-76
2023/07/01 03:09:41;;;;;;;9.70;4.70;;;;;;;;;;5112711;28;20132;-75
2023/07/01 03:12:07;;;;;;;11.48;5.00;;;;;;;;;;5112725;28;20429;-75
2023/07/01 03:14:33;;;;;;;11.10;4.90;;;;;;;;;;5112911;28;20078;-75
2023/07/01 03:16:59;;;;;;;10.57;5.00;;;;;;;;;;5113152;28;20043;-75
2023/07/01 03:19:25;;;;;;;12.10;4.80;;;;;;;;;;5094694;28;20059;-75
2023/07/01 03:21:51;;;;;;;8.40;5.07;;;;;;;;;;5094882;28;20060;-75
2023/07/01 03:24:18;;;;;;;11.82;5.55;;;;;;;;;;5112802;28;20047;-76
2023/07/01 03:26:44;;;;;;;9.05;5.60;;;;;;;;;;5094253;28;20052;-76
2023/07/01 03:29:10;;;;;;;11.02;5.68;;;;;;;;;;5113060;28;20100;-75
2023/07/01 03:31:36;;;;;;;9.43;5.65;;;;;;;;;;5116399;28;20054;-73
2023/07/01 03:34:03;;;;;;;14.65;5.70;;;;;;;;;;5117160;28;20050;-74
2023/07/01 03:36:29;;;;;;;10.88;5.65;;;;;;;;;;5112384;28;20082;-74
2023/07/01 03:38:58;;;;;;;11.98;5.80;;;;;;;;;;5093000;28;20051;-75
2023/07/01 03:41:24;;;;;;;12.85;6.18;;;;;;;;;;5109921;28;20047;-75
2023/07/01 03:43:50;;;;;;;10.07;5.88;;;;;;;;;;5110535;28;20088;-75
2023/07/01 03:46:16;;;;;;;8.15;4.88;;;;;;;;;;5110542;28;20067;-75
2023/07/01 03:48:43;;;;;;;10.35;5.15;;;;;;;;;;5111196;28;20089;-75
2023/07/01 03:51:09;;;;;;;9.13;5.93;;;;;;;;;;5112519;28;20065;-75
2023/07/01 03:53:35;;;;;;;8.98;5.43;;;;;;;;;;5112299;28;20069;-75
2023/07/01 03:56:01;;;;;;;8.10;4.85;;;;;;;;;;5112444;28;20379;-75
2023/07/01 03:58:27;;;;;;;10.48;5.20;;;;;;;;;;5111292;28;20049;-75
2023/07/01 04:00:53;;;;;;;8.15;4.85;;;;;;;;;;5112565;28;20426;-75
2023/07/01 04:03:23;;;;;;;7.90;4.53;;;;;;;;;;5093996;28;20099;-75
2023/07/01 04:05:50;;;;;;;9.00;5.05;;;;;;;;;;5094207;28;20043;-75
2023/07/01 04:08:16;;;;;;;13.50;4.80;;;;;;;;;;5112432;28;20051;-76
2023/07/01 04:10:43;;;;;;;14.50;4.80;;;;;;;;;;5112147;28;20074;-76
2023/07/01 04:13:10;;;;;;;9.27;5.05;;;;;;;;;;5112363;28;20176;-76
2023/07/01 04:15:36;;;;;;;11.88;4.70;;;;;;;;;;5112019;28;20144;-75
2023/07/01 04:18:02;;;;;;;7.78;4.88;;;;;;;;;;5112297;28;20533;-74
2023/07/01 04:20:28;;;;;;;14.20;5.40;;;;;;;;;;5096200;28;20510;-74
2023/07/01 04:22:54;;;;;;;11.45;4.85;;;;;;;;;;5102340;28;20060;-74
2023/07/01 04:25:20;;;;;;;7.93;4.63;;;;;;;;;;5108670;28;20122;-74
2023/07/01 04:27:47;;;;;;;9.15;4.45;;;;;;;;;;5115642;28;20541;-74
2023/07/01 04:30:13;;;;;;;7.22;4.40;;;;;;;;;;5114646;28;20395;-74
2023/07/01 04:32:40;;;;;;;10.18;4.45;;;;;;;;;;5098218;28;20388;-74
2023/07/01 04:35:06;;;;;;;11.23;4.38;;;;;;;;;;5098510;28;20055;-74
2023/07/01 04:37:33;;;;;;;6.93;4.25;;;;;;;;;;5108971;28;20127;-75
2023/07/01 04:39:59;;;;;;;9.80;4.30;;;;;;;;;;5087589;28;20563;-74
2023/07/01 04:42:25;;;;;;;9.52;4.30;;;;;;;;;;5115447;28;20089;-75
2023/07/01 04:44:54;;;;;;;8.88;4.47;;;;;;;;;;5096504;28;20048;-75
2023/07/01 04:47:21;;;;;;;7.82;4.43;;;;;;;;;;5094499;28;20044;-74
2023/07/01 04:49:47;;;;;;;7.28;4.10;;;;;;;;;;5092649;28;20044;-75
2023/07/01 04:52:15;;;;;;;8.57;4.50;;;;;;;;;;5094694;28;20512;-75
2023/07/01 04:54:41;;;;;;;10.57;4.40;;;;;;;;;;5114575;28;20050;-75
2023/07/01 04:57:07;;;;;;;8.45;4.43;;;;;;;;;;5115051;28;20044;-75
2023/07/01 04:59:33;;;;;;;7.85;4.50;;;;;;;;;;5115123;28;20546;-74
2023/07/01 05:01:59;;;;;;;6.70;4.45;;;;;;;;;;5114973;28;20040;-74
2023/07/01 05:04:25;;;;;;;11.05;5.28;;;;;;;;;;5096819;28;20392;-75
2023/07/01 05:06:51;;;;;;;11.50;5.72;;;;;;;;;;5114825;28;20043;-75
2023/07/01 05:09:17;;;;;;;11.52;5.40;;;;;;;;;;5096630;28;20123;-75
2023/07/01 05:11:44;;;;;;;8.82;5.65;;;;;;;;;;5114649;28;20089;-74
2023/07/01 05:14:10;;;;;;;9.88;5.68;;;;;;;;;;5115077;28;20180;-74
2023/07/01 05:16:36;;;;;;;9.20;5.45;;;;;;;;;;5114984;28;20036;-74
2023/07/01 05:19:02;;;;;;;11.18;6.10;;;;;;;;;;5114631;28;20047;-74
2023/07/01 05:21:29;;;;;;;12.05;5.85;;;;;;;;;;5114207;28;20071;-75
2023/07/01 05:23:55;;;;;;;10.18;6.13;;;;;;;;;;5114924;28;20060;-75
2023/07/01 05:26:22;;;;;;;9.60;5.82;;;;;;;;;;5096027;28;20040;-75
2023/07/01 05:28:48;;;;;;;12.00;5.68;;;;;;;;;;5095760;28;20047;-75
2023/07/01 05:31:14;;;;;;;12.50;5.85;;;;;;;;;;5112798;28;20099;-74
2023/07/01 05:33:40;;;;;;;11.68;5.82;;;;;;;;;;5094932;28;20673;-74
2023/07/01 05:36:06;;;;;;;7.65;5.32;;;;;;;;;;5075411;28;20052;-75
2023/07/01 05:38:32;;;;;;;8.13;5.45;;;;;;;;;;5093532;28;20512;-74
2023/07/01 05:40:58;;;;;;;8.63;5.53;;;;;;;;;;5102616;28;20408;-75
2023/07/01 05:43:24;;;;;;;8.75;5.55;;;;;;;;;;5095847;28;20055;-75
2023/07/01 05:45:50;;;;;;;9.18;5.25;;;;;;;;;;5102776;28;20043;-74
2023/07/01 05:48:17;;;;;;;8.25;5.30;;;;;;;;;;5093750;28;20050;-74
2023/07/01 05:50:43;;;;;;;9.57;5.20;;;;;;;;;;5086629;28;20373;-75
2023/07/01 05:53:09;;;;;;;8.85;5.35;;;;;;;;;;5104310;28;20146;-75
2023/07/01 05:55:36;;;;;;;9.52;5.80;;;;;;;;;;5113612;28;20572;-75
2023/07/01 05:58:02;;;;;;;11.25;5.22;;;;;;;;;;5113814;28;20057;-75
2023/07/01 06:00:28;;;;;;;8.55;5.60;;;;;;;;;;5096698;28;20032;-75
2023/07/01 06:02:55;;;;;;;10.73;5.38;;;;;;;;;;5094028;28;20097;-75
2023/07/01 06:05:21;;;;;;;8.63;5.55;;;;;;;;;;5093626;28;20050;-75
2023/07/01 06:07:47;;;;;;;11.52;6.10;;;;;;;;;;5113656;28;20043;-75
2023/07/01 06:10:13;;;;;;;10.40;6.35;;;;;;;;;;5113193;28;20043;-75
2023/07/01 06:12:40;;;;;;;9.90;5.95;;;;;;;;;;5111924;28;20092;-74
2023/07/01 06:15:06;;;;;;;12.77;6.65;;;;;;;;;;5113308;28;20116;-74
2023/07/01 06:17:32;;;;;;;10.23;6.65;;;;;;;;;;5111691;28;20055;-75
2023/07/01 06:19:58;;;;;;;9.68;6.60;;;;;;;;;;5112922;28;20036;-74
2023/07/01 06:22:24;;;;;;;11.82;7.25;;;;;;;;;;5113477;28;20092;-75
2023/07/01 06:24:50;;;;;;;13.55;7.78;;;;;;;;;;5094834;28;20583;-74
2023/07/01 06:27:16;;;;;;;11.65;8.80;;;;;;;;;;5111201;28;20119;-74
2023/07/01 06:29:43;;;;;;;13.88;9.25;;;;;;;;;;5113876;28;20119;-75
2023/07/01 06:32:09;;;;;;;11.68;8.68;;;;;;;;;;5113581;28;20505;-75
2023/07/01 06:34:35;;;;;;;14.73;9.25;;;;;;;;;;5113381;28;20044;-74
2023/07/01 06:37:01;;;;;;;12.93;8.30;;;;;;;;;;5095289;28;20180;-75
2023/07/01 06:39:27;;;;;;;11.45;8.38;;;;;;;;;;5112626;28;20103;-75
2023/07/01 06:41:53;;;;;;;16.08;9.63;;;;;;;;;;5092906;28;20373;-75
2023/07/01 06:44:19;;;;;;;13.00;9.20;;;;;;;;;;5110517;28;20036;-74
2023/07/01 06:46:46;;;;;;;14.10;9.70;;;;;;;;;;5111284;28;20073;-75
2023/07/01 06:49:12;;;;;;;15.07;9.77;;;;;;;;;;5112882;28;20051;-74
2023/07/01 06:51:38;;;;;;;16.50;9.43;;;;;;;;;;5094516;28;20048;-74
2023/07/01 06:54:04;;;;;;;12.93;10.05;;;;;;;;;;5107189;28;20132;-75
2023/07/01 06:56:30;;;;;;;14.60;10.32;;;;;;;;;;5086420;28;20059;-75
2023/07/01 06:58:56;;;;;;;15.68;9.98;;;;;;;;;;5110351;28;20403;-75
2023/07/01 07:01:23;;;;;;;13.98;9.80;;;;;;;;;;5075108;28;20369;-75
2023/07/01 07:03:49;;;;;;;13.68;9.52;;;;;;;;;;5093440;28;20396;-74
2023/07/01 07:06:18;;;;;;;13.02;9.80;;;;;;;;;;5078864;28;20040;-73
2023/07/01 07:08:44;;;;;;;14.40;9.77;;;;;;;;;;5095551;28;20046;-75
2023/07/01 07:11:10;;;;;;;13.45;9.32;;;;;;;;;;5092623;28;20051;-75
2023/07/01 07:13:36;;;;;;;18.52;9.38;;;;;;;;;;5074257;28;20126;-75
2023/07/01 07:16:02;;;;;;;12.10;9.90;;;;;;;;;;5092620;28;20044;-75
2023/07/01 07:18:28;;;;;;;12.13;9.60;;;;;;;;;;5092411;28;20043;-75
2023/07/01 07:20:55;;;;;;;11.50;9.70;;;;;;;;;;5096657;28;20035;-75
2023/07/01 07:23:21;;;;;;;12.32;9.93;;;;;;;;;;5085736;28;20063;-75
2023/07/01 07:25:47;;;;;;;11.75;9.50;;;;;;;;;;5092215;28;20047;-75
2023/07/01 07:28:14;;;;;;;12.07;10.45;;;;;;;;;;5074924;28;20043;-75
2023/07/01 07:30:40;;;;;;;11.60;9.63;;;;;;;;;;5095649;28;20065;-75
2023/07/01 07:33:07;;;;;;;10.57;9.48;;;;;;;;;;5087626;28;20135;-75
2023/07/01 07:35:33;;;;;;;13.35;10.43;;;;;;;;;;5110418;28;20035;-75
2023/07/01 07:38:02;;;;;;;11.70;9.68;;;;;;;;;;5092040;28;20048;-75
2023/07/01 07:40:29;;;;;;;9.85;8.85;;;;;;;;;;5091766;28;20036;-75
2023/07/01 07:42:56;;;;;;;12.70;9.32;;;;;;;;;;5087519;28;20487;-75
2023/07/01 07:45:22;;;;;;;10.25;8.88;;;;;;;;;;5112435;28;20369;-75
2023/07/01 07:47:48;;;;;;;10.73;9.35;;;;;;;;;;5112236;28;20074;-75
2023/07/01 07:50:15;;;;;;;13.38;9.20;;;;;;;;;;5112223;28;20372;-75
2023/07/01 07:52:41;;;;;;;8.88;7.95;;;;;;;;;;5103357;28;20130;-75
2023/07/01 07:55:07;;;;;;;8.68;7.80;;;;;;;;;;5113951;28;20044;-75
2023/07/01 07:57:33;;;;;;;9.20;8.30;;;;;;;;;;5110000;28;20056;-75
2023/07/01 08:00:01;;;;;;;9.73;7.93;;;;;;;;;;5097924;28;20411;-75
2023/07/01 08:02:28;;;;;;;8.57;7.68;;;;;;;;;;5097780;28;20058;-75
2023/07/01 08:04:54;;;;;;;7.72;6.95;;;;;;;;;;5115968;28;20044;-75
2023/07/01 08:07:20;;;;;;;9.00;7.15;;;;;;;;;;5115688;28;20100;-74
2023/07/01 08:09:46;;;;;;;8.63;7.00;;;;;;;;;;5106804;28;20427;-75
2023/07/01 08:12:12;;;;;;;7.60;6.90;;;;;;;;;;5095371;28;20048;-75
2023/07/01 08:14:38;;;;;;;8.23;7.32;;;;;;;;;;5095443;28;20059;-75
2023/07/01 08:17:04;;;;;;;9.35;7.35;;;;;;;;;;5095595;28;20052;-76
2023/07/01 08:19:31;;;;;;;8.85;7.40;;;;;;;;;;5076796;28;20044;-75
2023/07/01 08:21:57;;;;;;;7.57;6.88;;;;;;;;;;5090455;28;20106;-75
2023/07/01 08:24:23;;;;;;;7.88;6.47;;;;;;;;;;5057183;28;20128;-76
2023/07/01 08:26:49;;;;;;;8.60;7.25;;;;;;;;;;5074775;28;20084;-74
2023/07/01 08:29:17;;;;;;;7.60;6.80;;;;;;;;;;5075122;28;20053;-75
2023/07/01 08:31:43;;;;;;;8.57;7.00;;;;;;;;;;5074795;28;20043;-74
2023/07/01 08:34:09;;;;;;;7.70;6.80;;;;;;;;;;5056980;28;20056;-74
2023/07/01 08:36:35;;;;;;;7.50;6.80;;;;;;;;;;5074760;28;20060;-74
2023/07/01 08:39:02;;;;;;;7.57;6.72;;;;;;;;;;5064205;28;20181;-73
2023/07/01 08:41:29;;;;;;;8.05;6.68;;;;;;;;;;5093300;28;20097;-75
2023/07/01 08:43:55;;;;;;;8.35;6.90;;;;;;;;;;5078870;28;20094;-78
2023/07/01 08:46:23;;;;;;;6.82;6.13;;;;;;;;;;5057118;28;20051;-77
2023/07/01 08:48:49;;;;;;;7.07;6.20;;;;;;;;;;5074550;28;20105;-76
2023/07/01 08:51:15;;;;;;;6.50;5.78;;;;;;;;;;5056655;28;20143;-76
2023/07/01 08:53:42;;;;;;;6.72;6.03;;;;;;;;;;5080365;28;20040;-76
2023/07/01 08:56:09;;;;;;;6.70;5.70;;;;;;;;;;5072704;28;20040;-77
2023/07/01 08:58:35;;;;;;;7.90;6.05;;;;;;;;;;5067831;28;20052;-73
2023/07/01 09:01:02;;;;;;;6.00;5.40;;;;;;;;;;5087313;28;20465;-73
2023/07/01 09:03:28;;;;;;;6.03;5.43;;;;;;;;;;5074290;28;20128;-73
2023/07/01 09:05:55;;;;;;;6.43;5.60;;;;;;;;;;5074028;28;20090;-72
2023/07/01 09:08:21;;;;;;;5.90;5.30;;;;;;;;;;5073880;28;20040;-74
2023/07/01 09:10:47;;;;;;;6.75;5.30;;;;;;;;;;5074070;28;20049;-74
2023/07/01 09:13:14;;;;;;;5.68;4.85;;;;;;;;;;5073566;28;20073;-73
2023/07/01 09:15:45;;;;;;;5.32;4.80;;;;;;;;;;5054840;28;20045;-74
2023/07/01 09:18:21;;;;;;;6.03;5.07;;;;;;;;;;5074309;28;20048;-73
2023/07/01 09:20:49;;;;;;;5.47;4.90;;;;;;;;;;5074332;28;20049;-73
2023/07/01 09:23:31;;;;;;;5.32;4.82;;;;;;;;;;5087685;28;20444;-73
2023/07/01 09:26:11;;;;;;;5.00;4.50;;;;;;;;;;5094026;28;20068;-75
2023/07/01 09:28:41;;;;;;;4.60;4.10;;;;;;;;;;5093803;28;20043;-73
2023/07/01 09:31:09;;;;;;;5.20;4.57;;;;;;;;;;5094014;28;20059;-73
2023/07/01 09:33:35;;;;;;;5.15;4.57;;;;;;;;;;5110565;28;20047;-74
2023/07/01 09:36:02;;;;;;;5.57;4.53;;;;;;;;;;5107836;28;20043;-74
2023/07/01 09:38:28;;;;;;;5.03;4.50;;;;;;;;;;5104458;28;20040;-74
2023/07/01 09:40:55;;;;;;;4.70;4.18;;;;;;;;;;5093820;28;20141;-74
2023/07/01 09:43:31;;;;;;;4.90;4.40;;;;;;;;;;5094614;28;20402;-74
2023/07/01 09:45:58;;;;;;;7.38;4.90;;;;;;;;;;5095808;28;20487;-74
2023/07/01 09:48:24;;;;;;;5.47;4.75;;;;;;;;;;5114182;28;20043;-74
2023/07/01 09:50:50;;;;;;;5.90;4.70;;;;;;;;;;5113839;28;20036;-74
2023/07/01 09:53:20;;;;;;;4.97;4.43;;;;;;;;;;5103579;28;20127;-74
2023/07/01 09:55:47;;;;;;;5.40;4.53;;;;;;;;;;5073538;28;20506;-74
2023/07/01 09:58:14;;;;;;;4.55;4.05;;;;;;;;;;5091856;28;20480;-74
2023/07/01 10:00:40;;;;;;;5.22;3.78;;;;;;;;;;5093852;28;20039;-75
2023/07/01 10:03:07;;;;;;;4.00;3.50;;;;;;;;;;5102793;28;20093;-74
2023/07/01 10:05:34;;;;;;;4.07;3.60;;;;;;;;;;5095361;28;20054;-75
2023/07/01 10:08:03;;;;;;;4.82;3.75;;;;;;;;;;5096454;28;20040;-74
2023/07/01 10:10:29;;;;;;;4.53;3.22;;;;;;;;;;5093100;28;20040;-73
2023/07/01 10:12:57;;;;;;;5.55;4.00;;;;;;;;;;5093626;28;20063;-74
2023/07/01 10:15:30;;;;;;;4.88;3.92;;;;;;;;;;5093331;28;20036;-74
2023/07/01 10:17:57;;;;;;;5.72;2.67;;;;;;;;;;5092503;28;20126;-74
2023/07/01 10:20:28;;;;;;;3.10;2.38;;;;;;;;;;5092899;28;20146;-75
2023/07/01 10:22:55;;;;;;;3.08;2.38;;;;;;;;;;5093566;28;20056;-75
2023/07/01 10:25:50;;;;;;;4.40;2.40;;;;;;;;;;5091508;28;20424;-75
2023/07/01 10:28:17;;;;;;;3.70;2.33;;;;;;;;;;5092931;28;20135;-75
2023/07/01 10:30:43;;;;;;;3.95;2.30;;;;;;;;;;5111935;28;20047;-75
2023/07/01 10:33:30;;;;;;;6.45;2.80;;;;;;;;;;5113263;28;20043;-75
2023/07/01 10:36:02;;;;;;;6.00;2.70;;;;;;;;;;5115281;28;20519;-74
2023/07/01 10:38:30;;;;;;;4.75;2.65;;;;;;;;;;5121405;28;20487;-74
2023/07/01 10:40:56;;;;;;;3.55;2.30;;;;;;;;;;5117682;28;21180;-69
2023/07/01 10:43:36;;;;;;;5.05;2.80;;;;;;;;;;5110066;28;20050;-69
2023/07/01 10:46:10;;;;;;;4.90;2.72;;;;;;;;;;5110197;28;20047;-69
2023/07/01 10:48:37;;;;;;;4.00;2.95;;;;;;;;;;5109542;28;20047;-69
2023/07/01 10:51:04;;;;;;;5.88;2.80;;;;;;;;;;5109491;28;20396;-69
2023/07/01 10:53:31;;;;;;;4.38;2.80;;;;;;;;;;5107274;28;20035;-69
2023/07/01 10:56:23;;;;;;;6.32;3.10;;;;;;;;;;5107823;28;20506;-69
2023/07/01 10:59:08;;;;;;;5.28;3.15;;;;;;;;;;5105643;28;20190;-68
2023/07/01 11:01:44;;;;;;;6.07;3.63;;;;;;;;;;5110032;28;20079;-68
2023/07/01 11:04:10;;;;;;;5.20;3.28;;;;;;;;;;5109655;28;20089;-68
2023/07/01 11:06:47;;;;;;;5.47;3.30;;;;;;;;;;5109352;28;20044;-68
2023/07/01 11:09:13;;;;;;;3.75;2.78;;;;;;;;;;5109668;28;20058;-69
2023/07/01 11:11:40;;;;;;;4.65;2.88;;;;;;;;;;5109743;28;20040;-68
2023/07/01 11:14:08;;;;;;;5.07;2.90;;;;;;;;;;5103099;28;20396;-68
2023/07/01 11:16:34;;;;;;;4.10;2.58;;;;;;;;;;5088564;28;20048;-68
2023/07/01 11:19:05;;;;;;;4.60;3.20;;;;;;;;;;5088921;28;20036;-68
2023/07/01 11:21:32;;;;;;;4.63;3.17;;;;;;;;;;5087921;28;20074;-68
2023/07/01 11:23:59;;;;;;;4.30;3.08;;;;;;;;;;5107239;28;20101;-68
2023/07/01 11:26:27;;;;;;;4.95;3.83;;;;;;;;;;5109702;28;20446;-68
2023/07/01 11:28:53;;;;;;;6.43;3.65;;;;;;;;;;5111133;28;20101;-68
2023/07/01 11:31:24;;;;;;;5.15;4.15;;;;;;;;;;5113510;28;20050;-68
2023/07/01 11:33:51;;;;;;;8.20;4.50;;;;;;;;;;5111847;28;20233;-69
2023/07/01 11:36:18;;;;;;;6.90;5.13;;;;;;;;;;5113639;28;20048;-68
2023/07/01 11:38:49;;;;;;;6.28;4.22;;;;;;;;;;5113267;28;20440;-68
2023/07/01 11:41:20;;;;;;;6.35;4.35;;;;;;;;;;5113313;28;20059;-68
2023/07/01 11:43:47;;;;;;;6.55;4.30;;;;;;;;;;5115131;28;20122;-73
2023/07/01 11:46:13;;;;;;;6.05;4.75;;;;;;;;;;5116116;28;20449;-73
2023/07/01 11:48:40;;;;;;;7.10;5.18;;;;;;;;;;5115967;28;20055;-74
2023/07/01 11:51:07;;;;;;;7.82;5.30;;;;;;;;;;5104684;28;20040;-74
2023/07/01 11:53:33;;;;;;;7.57;5.40;;;;;;;;;;5090447;28;20054;-73
2023/07/01 11:56:02;;;;;;;6.47;5.78;;;;;;;;;;5108516;28;20056;-73
2023/07/01 11:58:32;;;;;;;7.70;6.00;;;;;;;;;;5097853;28;20046;-74
2023/07/01 12:00:59;;;;;;;8.48;6.40;;;;;;;;;;5115544;28;20035;-74
2023/07/01 12:03:26;;;;;;;8.50;5.97;;;;;;;;;;5115533;28;20415;-75
2023/07/01 12:05:52;;;;;;;11.90;6.88;;;;;;;;;;5115649;28;20062;-75
2023/07/01 12:08:18;;;;;;;7.63;6.13;;;;;;;;;;5115443;28;20217;-74
2023/07/01 12:10:44;;;;;;;8.65;6.63;;;;;;;;;;5115627;28;20039;-73
2023/07/01 12:13:28;;;;;;;9.60;6.57;;;;;;;;;;5115717;28;20050;-73
2023/07/01 12:15:55;;;;;;;10.68;6.55;;;;;;;;;;5115705;28;20082;-73
2023/07/01 12:18:22;;;;;;;8.32;6.55;;;;;;;;;;5095509;28;20040;-74
2023/07/01 12:20:48;;;;;;;9.10;6.57;;;;;;;;;;5113817;28;20054;-74
2023/07/01 12:23:14;;;;;;;11.60;6.18;;;;;;;;;;5113734;28;20048;-74
2023/07/01 12:25:40;;;;;;;7.82;6.32;;;;;;;;;;5115721;28;20142;-73
2023/07/01 12:28:06;;;;;;;8.27;6.00;;;;;;;;;;5115530;28;20047;-73
2023/07/01 12:30:32;;;;;;;7.05;5.13;;;;;;;;;;5112315;28;20040;-74
2023/07/01 12:32:58;;;;;;;8.52;5.40;;;;;;;;;;5112924;28;20071;-74
2023/07/01 12:35:25;;;;;;;8.25;4.72;;;;;;;;;;5113126;28;20043;-74
2023/07/01 12:37:51;;;;;;;7.18;4.78;;;;;;;;;;5115328;28;20112;-74
2023/07/01 12:40:17;;;;;;;9.68;4.20;;;;;;;;;;5102874;28;20402;-73
2023/07/01 12:42:45;;;;;;;6.80;3.72;;;;;;;;;;5095120;28;20044;-73
2023/07/01 12:45:11;;;;;;;6.55;4.05;;;;;;;;;;5101900;28;20036;-74
2023/07/01 12:47:42;;;;;;;7.75;4.07;;;;;;;;;;5102233;28;20036;-74
2023/07/01 12:50:08;;;;;;;7.18;3.70;;;;;;;;;;5113738;28;20538;-73
2023/07/01 12:52:35;;;;;;;6.40;4.00;;;;;;;;;;5113773;28;20059;-73
2023/07/01 12:55:01;;;;;;;7.93;4.00;;;;;;;;;;5113546;28;20051;-75
2023/07/01 12:57:27;;;;;;;9.23;3.90;;;;;;;;;;5114555;28;20044;-74
2023/07/01 12:59:54;;;;;;;8.05;3.70;;;;;;;;;;5114460;28;20105;-72
2023/07/01 13:02:23;;;;;;;6.00;3.75;;;;;;;;;;5114881;28;20044;-73
2023/07/01 13:05:16;;;;;;;6.45;3.50;;;;;;;;;;5113064;28;20043;-75
2023/07/01 13:07:42;;;;;;;6.40;3.85;;;;;;;;;;5108122;28;20054;-74
2023/07/01 13:10:11;;;;;;;5.65;3.85;;;;;;;;;;5111342;28;20039;-74
2023/07/01 13:12:37;;;;;;;6.95;3.50;;;;;;;;;;5111549;28;20085;-74
2023/07/01 13:15:18;;;;;;;6.22;3.60;;;;;;;;;;5092550;28;20097;-74
2023/07/01 13:17:44;;;;;;;4.95;3.50;;;;;;;;;;5092640;28;20097;-74
2023/07/01 13:20:11;;;;;;;4.38;3.17;;;;;;;;;;5102698;28;20040;-74
2023/07/01 13:22:37;;;;;;;4.07;3.10;;;;;;;;;;5084982;28;20049;-74
2023/07/01 13:25:04;;;;;;;4.72;2.90;;;;;;;;;;5090474;28;20087;-74
2023/07/01 13:27:31;;;;;;;3.83;2.47;;;;;;;;;;5089968;28;20087;-75
2023/07/01 13:29:57;;;;;;;4.85;2.67;;;;;;;;;;5071524;28;20086;-74
2023/07/01 13:32:23;;;;;;;4.53;2.55;;;;;;;;;;5072803;28;20062;-74
2023/07/01 13:34:50;;;;;;;5.70;2.70;;;;;;;;;;5090472;28;20356;-74
2023/07/01 13:37:20;;;;;;;5.47;2.85;;;;;;;;;;5072501;28;20051;-73
2023/07/01 13:39:46;;;;;;;5.60;2.65;;;;;;;;;;5090286;28;20535;-74
2023/07/01 13:42:15;;;;;;;6.25;3.33;;;;;;;;;;5090693;28;20091;-73
2023/07/01 13:44:41;;;;;;;4.68;2.88;;;;;;;;;;5093535;28;20086;-73
2023/07/01 13:47:11;;;;;;;6.30;2.50;;;;;;;;;;5093680;28;20427;-72
2023/07/01 13:49:37;;;;;;;5.22;2.35;;;;;;;;;;5093157;28;20083;-73
2023/07/01 13:52:04;;;;;;;4.38;2.40;;;;;;;;;;5090989;28;20500;-73
2023/07/01 13:54:30;;;;;;;4.53;2.47;;;;;;;;;;5093409;28;20048;-73
2023/07/01 13:56:57;;;;;;;5.10;2.10;;;;;;;;;;5069544;28;20066;-72
2023/07/01 13:59:24;;;;;;;3.80;2.35;;;;;;;;;;5093372;28;20051;-73
2023/07/01 14:01:53;;;;;;;7.80;2.30;;;;;;;;;;5091946;28;20036;-73
2023/07/01 14:04:21;;;;;;;3.33;2.10;;;;;;;;;;5079117;28;20044;-74
2023/07/01 14:06:47;;;;;;;5.75;2.25;;;;;;;;;;5085045;28;20047;-74
2023/07/01 14:09:20;;;;;;;5.13;2.17;;;;;;;;;;5074969;28;20050;-74
2023/07/01 14:11:46;;;;;;;5.32;2.28;;;;;;;;;;5096230;28;20099;-74
2023/07/01 14:14:19;;;;;;;5.43;2.40;;;;;;;;;;5082291;28;20048;-74
2023/07/01 14:16:45;;;;;;;7.13;2.63;;;;;;;;;;5093745;28;20075;-74
2023/07/01 14:19:13;;;;;;;5.93;2.33;;;;;;;;;;5091243;28;20057;-74
2023/07/01 14:21:39;;;;;;;4.07;2.25;;;;;;;;;;5091145;28;20135;-74
2023/07/01 14:24:10;;;;;;;3.63;2.47;;;;;;;;;;5098715;28;20419;-74
2023/07/01 14:26:41;;;;;;;5.70;2.63;;;;;;;;;;5073660;28;20054;-74
2023/07/01 14:29:07;;;;;;;4.60;2.28;;;;;;;;;;5096280;28;20394;-74
2023/07/01 14:31:34;;;;;;;5.22;2.70;;;;;;;;;;5112933;28;20047;-73
2023/07/01 14:34:01;;;;;;;5.53;2.63;;;;;;;;;;5099235;28;20047;-72
2023/07/01 14:36:28;;;;;;;6.47;3.10;;;;;;;;;;5092914;28;20036;-74
2023/07/01 14:38:55;;;;;;;6.45;3.30;;;;;;;;;;5106735;28;20384;-75
2023/07/01 14:41:31;;;;;;;6.35;3.75;;;;;;;;;;5110895;28;20063;-75
2023/07/01 14:43:57;;;;;;;6.70;3.92;;;;;;;;;;5095874;28;20063;-75
2023/07/01 14:46:25;;;;;;;8.77;4.60;;;;;;;;;;5096776;28;20100;-75
2023/07/01 14:48:51;;;;;;;6.93;4.63;;;;;;;;;;5112777;28;20046;-75
2023/07/01 14:51:18;;;;;;;8.25;5.10;;;;;;;;;;5105390;28;20052;-75
2023/07/01 14:53:46;;;;;;;6.65;4.53;;;;;;;;;;5087332;28;20396;-76
2023/07/01 14:56:13;;;;;;;8.77;4.43;;;;;;;;;;5090271;28;20056;-75
2023/07/01 14:58:39;;;;;;;6.05;4.53;;;;;;;;;;5075297;28;20051;-74
2023/07/01 15:01:05;;;;;;;7.80;4.63;;;;;;;;;;5090889;28;20424;-76